sensor_id;sensor_type;location;lat;lon;timestamp;P1;durP1;ratioP1;P2;durP2;ratioP2
55134;SDS011;41031;44.750;11.308;2023-02-28T00:01:31;7.97;;;6.10;;
55134;SDS011;41031;44.750;11.308;2023-02-28T00:03:59;9.20;;;5.43;;
55134;SDS011;41031;44.750;11.308;2023-02-28T00:06:27;10.53;;;6.07;;
55134;SDS011;41031;44.750;11.308;2023-02-28T00:08:55;7.97;;;5.57;;
55134;SDS011;41031;44.750;11.308;2023-02-28T00:11:23;12.10;;;6.37;;
55134;SDS011;41031;44.750;11.308;2023-02-28T00:13:51;8.43;;;6.40;;
55134;SDS011;41031;44.750;11.308;2023-02-28T00:16:20;10.97;;;5.53;;
55134;SDS011;41031;44.750;11.308;2023-02-28T00:18:49;8.30;;;6.07;;
55134;SDS011;41031;44.750;11.308;2023-02-28T00:21:17;9.53;;;6.27;;
55134;SDS011;41031;44.750;11.308;2023-02-28T00:23:49;10.40;;;6.27;;
55134;SDS011;41031;44.750;11.308;2023-02-28T00:26:16;8.17;;;5.53;;
55134;SDS011;41031;44.750;11.308;2023-02-28T00:28:48;8.83;;;5.80;;
55134;SDS011;41031;44.750;11.308;2023-02-28T00:31:16;10.17;;;6.00;;
55134;SDS011;41031;44.750;11.308;2023-02-28T00:33:44;8.90;;;5.50;;
55134;SDS011;41031;44.750;11.308;2023-02-28T00:36:13;8.57;;;5.07;;
55134;SDS011;41031;44.750;11.308;2023-02-28T00:38:41;10.47;;;5.60;;
55134;SDS011;41031;44.750;11.308;2023-02-28T00:41:09;9.67;;;5.77;;
55134;SDS011;41031;44.750;11.308;2023-02-28T00:43:38;11.37;;;6.30;;
55134;SDS011;41031;44.750;11.308;2023-02-28T00:46:06;9.33;;;5.63;;
55134;SDS011;41031;44.750;11.308;2023-02-28T00:48:34;9.40;;;5.43;;
55134;SDS011;41031;44.750;11.308;2023-02-28T00:51:02;6.70;;;5.23;;
55134;SDS011;41031;44.750;11.308;2023-02-28T00:53:30;10.03;;;5.60;;
55134;SDS011;41031;44.750;11.308;2023-02-28T00:55:59;12.17;;;5.23;;
55134;SDS011;41031;44.750;11.308;2023-02-28T00:58:27;5.77;;;4.50;;
55134;SDS011;41031;44.750;11.308;2023-02-28T01:00:54;8.93;;;4.80;;
55134;SDS011;41031;44.750;11.308;2023-02-28T01:03:22;7.27;;;5.00;;
55134;SDS011;41031;44.750;11.308;2023-02-28T01:05:50;6.47;;;4.93;;
55134;SDS011;41031;44.750;11.308;2023-02-28T01:08:19;9.00;;;4.67;;
55134;SDS011;41031;44.750;11.308;2023-02-28T01:10:47;7.87;;;4.33;;
55134;SDS011;41031;44.750;11.308;2023-02-28T01:13:15;11.20;;;5.43;;
55134;SDS011;41031;44.750;11.308;2023-02-28T01:15:43;7.20;;;5.30;;
55134;SDS011;41031;44.750;11.308;2023-02-28T01:18:16;9.60;;;5.60;;
55134;SDS011;41031;44.750;11.308;2023-02-28T01:20:46;6.80;;;5.27;;
55134;SDS011;41031;44.750;11.308;2023-02-28T01:23:16;9.93;;;5.27;;
55134;SDS011;41031;44.750;11.308;2023-02-28T01:25:43;11.93;;;4.93;;
55134;SDS011;41031;44.750;11.308;2023-02-28T01:28:11;11.80;;;5.30;;
55134;SDS011;41031;44.750;11.308;2023-02-28T01:30:38;5.90;;;4.67;;
55134;SDS011;41031;44.750;11.308;2023-02-28T01:33:05;7.10;;;5.23;;
55134;SDS011;41031;44.750;11.308;2023-02-28T01:35:33;6.93;;;5.00;;
55134;SDS011;41031;44.750;11.308;2023-02-28T01:38:02;6.00;;;5.03;;
55134;SDS011;41031;44.750;11.308;2023-02-28T01:40:47;7.43;;;5.30;;
55134;SDS011;41031;44.750;11.308;2023-02-28T01:45:54;7.53;;;5.40;;
55134;SDS011;41031;44.750;11.308;2023-02-28T01:48:27;9.00;;;5.63;;
55134;SDS011;41031;44.750;11.308;2023-02-28T01:51:00;8.43;;;4.57;;
55134;SDS011;41031;44.750;11.308;2023-02-28T01:53:32;13.90;;;5.00;;
55134;SDS011;41031;44.750;11.308;2023-02-28T01:56:06;8.67;;;5.60;;
55134;SDS011;41031;44.750;11.308;2023-02-28T01:58:35;8.93;;;5.47;;
55134;SDS011;41031;44.750;11.308;2023-02-28T02:01:05;10.73;;;5.83;;
55134;SDS011;41031;44.750;11.308;2023-02-28T02:03:49;10.57;;;5.73;;
55134;SDS011;41031;44.750;11.308;2023-02-28T02:06:24;7.63;;;5.07;;
55134;SDS011;41031;44.750;11.308;2023-02-28T02:08:55;8.90;;;6.73;;
55134;SDS011;41031;44.750;11.308;2023-02-28T02:11:23;15.60;;;6.30;;
55134;SDS011;41031;44.750;11.308;2023-02-28T02:17:14;7.20;;;4.93;;
55134;SDS011;41031;44.750;11.308;2023-02-28T02:26:03;8.93;;;5.60;;
55134;SDS011;41031;44.750;11.308;2023-02-28T02:37:31;8.20;;;4.87;;
55134;SDS011;41031;44.750;11.308;2023-02-28T02:45:55;7.93;;;5.60;;
55134;SDS011;41031;44.750;11.308;2023-02-28T02:48:30;11.73;;;6.17;;
55134;SDS011;41031;44.750;11.308;2023-02-28T02:51:02;8.37;;;6.13;;
55134;SDS011;41031;44.750;11.308;2023-02-28T02:53:47;8.63;;;5.70;;
55134;SDS011;41031;44.750;11.308;2023-02-28T02:56:22;7.67;;;6.10;;
55134;SDS011;41031;44.750;11.308;2023-02-28T02:58:57;12.93;;;6.50;;
55134;SDS011;41031;44.750;11.308;2023-02-28T03:01:31;12.23;;;7.00;;
55134;SDS011;41031;44.750;11.308;2023-02-28T03:04:04;9.27;;;6.07;;
55134;SDS011;41031;44.750;11.308;2023-02-28T03:06:40;8.73;;;5.80;;
55134;SDS011;41031;44.750;11.308;2023-02-28T03:09:09;10.40;;;6.30;;
55134;SDS011;41031;44.750;11.308;2023-02-28T03:11:38;7.97;;;6.43;;
55134;SDS011;41031;44.750;11.308;2023-02-28T03:17:34;7.53;;;6.37;;
55134;SDS011;41031;44.750;11.308;2023-02-28T03:20:15;13.03;;;7.57;;
55134;SDS011;41031;44.750;11.308;2023-02-28T03:23:19;12.40;;;6.70;;
55134;SDS011;41031;44.750;11.308;2023-02-28T03:26:06;8.30;;;6.50;;
55134;SDS011;41031;44.750;11.308;2023-02-28T03:31:33;10.77;;;6.27;;
55134;SDS011;41031;44.750;11.308;2023-02-28T03:36:37;8.27;;;6.47;;
55134;SDS011;41031;44.750;11.308;2023-02-28T03:39:14;9.83;;;6.47;;
55134;SDS011;41031;44.750;11.308;2023-02-28T03:41:57;10.00;;;6.90;;
55134;SDS011;41031;44.750;11.308;2023-02-28T03:44:38;10.83;;;6.50;;
55134;SDS011;41031;44.750;11.308;2023-02-28T03:47:11;11.60;;;6.57;;
55134;SDS011;41031;44.750;11.308;2023-02-28T03:49:47;10.40;;;6.60;;
55134;SDS011;41031;44.750;11.308;2023-02-28T03:52:27;6.57;;;5.77;;
55134;SDS011;41031;44.750;11.308;2023-02-28T03:55:02;11.30;;;6.90;;
55134;SDS011;41031;44.750;11.308;2023-02-28T03:57:40;8.10;;;6.60;;
55134;SDS011;41031;44.750;11.308;2023-02-28T04:00:39;10.13;;;6.33;;
55134;SDS011;41031;44.750;11.308;2023-02-28T04:03:11;11.77;;;7.30;;
55134;SDS011;41031;44.750;11.308;2023-02-28T04:05:51;10.17;;;6.90;;
55134;SDS011;41031;44.750;11.308;2023-02-28T04:08:22;13.57;;;7.23;;
55134;SDS011;41031;44.750;11.308;2023-02-28T04:11:01;14.20;;;7.17;;
55134;SDS011;41031;44.750;11.308;2023-02-28T04:13:52;9.30;;;6.47;;
55134;SDS011;41031;44.750;11.308;2023-02-28T04:16:20;10.80;;;6.47;;
55134;SDS011;41031;44.750;11.308;2023-02-28T04:19:01;10.10;;;6.87;;
55134;SDS011;41031;44.750;11.308;2023-02-28T04:21:34;9.47;;;6.43;;
55134;SDS011;41031;44.750;11.308;2023-02-28T04:24:03;9.57;;;7.80;;
55134;SDS011;41031;44.750;11.308;2023-02-28T04:26:31;12.70;;;7.47;;
55134;SDS011;41031;44.750;11.308;2023-02-28T04:29:01;12.13;;;6.83;;
55134;SDS011;41031;44.750;11.308;2023-02-28T04:31:33;10.20;;;7.33;;
55134;SDS011;41031;44.750;11.308;2023-02-28T04:34:01;11.63;;;6.93;;
55134;SDS011;41031;44.750;11.308;2023-02-28T04:36:29;13.33;;;6.33;;
55134;SDS011;41031;44.750;11.308;2023-02-28T04:38:57;11.00;;;7.00;;
55134;SDS011;41031;44.750;11.308;2023-02-28T04:41:24;9.20;;;6.47;;
55134;SDS011;41031;44.750;11.308;2023-02-28T04:43:53;13.13;;;7.07;;
55134;SDS011;41031;44.750;11.308;2023-02-28T04:46:22;12.37;;;6.93;;
55134;SDS011;41031;44.750;11.308;2023-02-28T04:48:52;8.70;;;6.27;;
55134;SDS011;41031;44.750;11.308;2023-02-28T04:51:21;8.53;;;6.33;;
55134;SDS011;41031;44.750;11.308;2023-02-28T04:53:50;9.97;;;6.67;;
55134;SDS011;41031;44.750;11.308;2023-02-28T04:56:18;8.63;;;5.77;;
55134;SDS011;41031;44.750;11.308;2023-02-28T04:58:45;12.17;;;6.70;;
55134;SDS011;41031;44.750;11.308;2023-02-28T05:01:24;9.03;;;6.73;;
55134;SDS011;41031;44.750;11.308;2023-02-28T05:03:55;13.90;;;7.03;;
55134;SDS011;41031;44.750;11.308;2023-02-28T05:06:26;11.37;;;7.17;;
55134;SDS011;41031;44.750;11.308;2023-02-28T05:08:57;8.90;;;6.80;;
55134;SDS011;41031;44.750;11.308;2023-02-28T05:11:27;10.57;;;7.77;;
55134;SDS011;41031;44.750;11.308;2023-02-28T05:14:06;12.00;;;7.17;;
55134;SDS011;41031;44.750;11.308;2023-02-28T05:16:39;13.47;;;7.00;;
55134;SDS011;41031;44.750;11.308;2023-02-28T05:19:08;9.13;;;6.77;;
55134;SDS011;41031;44.750;11.308;2023-02-28T05:21:36;11.43;;;7.50;;
55134;SDS011;41031;44.750;11.308;2023-02-28T05:24:09;9.87;;;7.00;;
55134;SDS011;41031;44.750;11.308;2023-02-28T05:26:38;13.00;;;7.13;;
55134;SDS011;41031;44.750;11.308;2023-02-28T05:29:08;13.13;;;7.20;;
55134;SDS011;41031;44.750;11.308;2023-02-28T05:31:36;14.17;;;7.03;;
55134;SDS011;41031;44.750;11.308;2023-02-28T05:34:04;10.47;;;6.67;;
55134;SDS011;41031;44.750;11.308;2023-02-28T05:36:32;11.20;;;7.20;;
55134;SDS011;41031;44.750;11.308;2023-02-28T05:38:59;9.63;;;6.87;;
55134;SDS011;41031;44.750;11.308;2023-02-28T05:41:26;9.70;;;8.03;;
55134;SDS011;41031;44.750;11.308;2023-02-28T05:43:57;10.00;;;6.80;;
55134;SDS011;41031;44.750;11.308;2023-02-28T05:46:27;11.47;;;7.73;;
55134;SDS011;41031;44.750;11.308;2023-02-28T05:48:55;10.10;;;7.17;;
55134;SDS011;41031;44.750;11.308;2023-02-28T05:51:24;11.43;;;7.80;;
55134;SDS011;41031;44.750;11.308;2023-02-28T05:53:53;8.87;;;6.90;;
55134;SDS011;41031;44.750;11.308;2023-02-28T05:56:20;10.77;;;7.03;;
55134;SDS011;41031;44.750;11.308;2023-02-28T05:58:48;10.67;;;7.43;;
55134;SDS011;41031;44.750;11.308;2023-02-28T06:01:32;12.10;;;7.37;;
55134;SDS011;41031;44.750;11.308;2023-02-28T06:04:06;8.80;;;7.70;;
55134;SDS011;41031;44.750;11.308;2023-02-28T06:06:53;12.13;;;7.90;;
55134;SDS011;41031;44.750;11.308;2023-02-28T06:09:21;11.07;;;8.00;;
55134;SDS011;41031;44.750;11.308;2023-02-28T06:11:49;12.97;;;9.20;;
55134;SDS011;41031;44.750;11.308;2023-02-28T06:14:18;9.77;;;6.57;;
55134;SDS011;41031;44.750;11.308;2023-02-28T06:16:49;10.07;;;7.00;;
55134;SDS011;41031;44.750;11.308;2023-02-28T06:19:18;11.40;;;6.97;;
55134;SDS011;41031;44.750;11.308;2023-02-28T06:21:48;12.20;;;8.07;;
55134;SDS011;41031;44.750;11.308;2023-02-28T06:24:19;12.83;;;7.03;;
55134;SDS011;41031;44.750;11.308;2023-02-28T06:26:53;14.60;;;8.00;;
55134;SDS011;41031;44.750;11.308;2023-02-28T06:29:20;11.27;;;7.63;;
55134;SDS011;41031;44.750;11.308;2023-02-28T06:31:49;11.53;;;6.60;;
55134;SDS011;41031;44.750;11.308;2023-02-28T06:34:16;10.70;;;7.70;;
55134;SDS011;41031;44.750;11.308;2023-02-28T06:36:44;11.73;;;8.13;;
55134;SDS011;41031;44.750;11.308;2023-02-28T06:39:12;11.20;;;7.17;;
55134;SDS011;41031;44.750;11.308;2023-02-28T06:41:40;10.80;;;7.67;;
55134;SDS011;41031;44.750;11.308;2023-02-28T06:44:20;9.97;;;7.67;;
55134;SDS011;41031;44.750;11.308;2023-02-28T06:46:49;11.57;;;7.47;;
55134;SDS011;41031;44.750;11.308;2023-02-28T06:49:18;12.63;;;7.00;;
55134;SDS011;41031;44.750;11.308;2023-02-28T06:51:46;13.80;;;8.60;;
55134;SDS011;41031;44.750;11.308;2023-02-28T06:54:14;10.87;;;7.93;;
55134;SDS011;41031;44.750;11.308;2023-02-28T06:56:45;9.17;;;7.20;;
55134;SDS011;41031;44.750;11.308;2023-02-28T06:59:14;12.27;;;7.47;;
55134;SDS011;41031;44.750;11.308;2023-02-28T07:01:44;11.13;;;8.27;;
55134;SDS011;41031;44.750;11.308;2023-02-28T07:04:12;10.57;;;7.43;;
55134;SDS011;41031;44.750;11.308;2023-02-28T07:06:40;12.47;;;7.17;;
55134;SDS011;41031;44.750;11.308;2023-02-28T07:09:08;9.63;;;7.13;;
55134;SDS011;41031;44.750;11.308;2023-02-28T07:11:37;11.47;;;8.10;;
55134;SDS011;41031;44.750;11.308;2023-02-28T07:14:05;10.00;;;7.57;;
55134;SDS011;41031;44.750;11.308;2023-02-28T07:16:34;13.40;;;7.20;;
55134;SDS011;41031;44.750;11.308;2023-02-28T07:19:02;10.37;;;7.83;;
55134;SDS011;41031;44.750;11.308;2023-02-28T07:21:29;9.73;;;7.13;;
55134;SDS011;41031;44.750;11.308;2023-02-28T07:23:57;10.33;;;7.37;;
55134;SDS011;41031;44.750;11.308;2023-02-28T07:26:30;10.13;;;7.30;;
55134;SDS011;41031;44.750;11.308;2023-02-28T07:29:02;12.07;;;7.83;;
55134;SDS011;41031;44.750;11.308;2023-02-28T07:31:31;10.53;;;7.30;;
55134;SDS011;41031;44.750;11.308;2023-02-28T07:34:00;10.40;;;7.53;;
55134;SDS011;41031;44.750;11.308;2023-02-28T07:36:30;12.17;;;7.53;;
55134;SDS011;41031;44.750;11.308;2023-02-28T07:39:04;12.47;;;7.47;;
55134;SDS011;41031;44.750;11.308;2023-02-28T07:41:32;11.53;;;7.33;;
55134;SDS011;41031;44.750;11.308;2023-02-28T07:44:01;9.97;;;7.00;;
55134;SDS011;41031;44.750;11.308;2023-02-28T07:46:29;7.70;;;6.33;;
55134;SDS011;41031;44.750;11.308;2023-02-28T07:49:08;12.63;;;7.77;;
55134;SDS011;41031;44.750;11.308;2023-02-28T07:51:38;12.33;;;8.27;;
55134;SDS011;41031;44.750;11.308;2023-02-28T07:54:09;9.43;;;7.53;;
55134;SDS011;41031;44.750;11.308;2023-02-28T07:56:39;16.93;;;8.17;;
55134;SDS011;41031;44.750;11.308;2023-02-28T07:59:08;10.67;;;7.50;;
55134;SDS011;41031;44.750;11.308;2023-02-28T08:01:37;10.90;;;7.70;;
55134;SDS011;41031;44.750;11.308;2023-02-28T08:04:06;13.83;;;8.43;;
55134;SDS011;41031;44.750;11.308;2023-02-28T08:06:34;12.77;;;7.67;;
55134;SDS011;41031;44.750;11.308;2023-02-28T08:09:04;12.27;;;7.57;;
55134;SDS011;41031;44.750;11.308;2023-02-28T08:11:35;11.63;;;7.47;;
55134;SDS011;41031;44.750;11.308;2023-02-28T08:14:06;12.20;;;7.60;;
55134;SDS011;41031;44.750;11.308;2023-02-28T08:16:34;12.43;;;8.03;;
55134;SDS011;41031;44.750;11.308;2023-02-28T08:19:04;12.43;;;7.83;;
55134;SDS011;41031;44.750;11.308;2023-02-28T08:21:37;13.70;;;8.13;;
55134;SDS011;41031;44.750;11.308;2023-02-28T08:24:09;12.53;;;7.47;;
55134;SDS011;41031;44.750;11.308;2023-02-28T08:26:38;12.70;;;7.73;;
55134;SDS011;41031;44.750;11.308;2023-02-28T08:29:06;17.93;;;8.00;;
55134;SDS011;41031;44.750;11.308;2023-02-28T08:31:34;12.77;;;7.50;;
55134;SDS011;41031;44.750;11.308;2023-02-28T08:34:14;10.83;;;7.73;;
55134;SDS011;41031;44.750;11.308;2023-02-28T08:36:45;11.70;;;8.23;;
55134;SDS011;41031;44.750;11.308;2023-02-28T08:39:13;14.07;;;8.40;;
55134;SDS011;41031;44.750;11.308;2023-02-28T08:41:42;9.83;;;7.07;;
55134;SDS011;41031;44.750;11.308;2023-02-28T08:44:10;12.63;;;7.83;;
55134;SDS011;41031;44.750;11.308;2023-02-28T08:46:39;10.57;;;7.00;;
55134;SDS011;41031;44.750;11.308;2023-02-28T08:49:09;11.27;;;7.30;;
55134;SDS011;41031;44.750;11.308;2023-02-28T08:51:40;10.07;;;7.47;;
55134;SDS011;41031;44.750;11.308;2023-02-28T08:54:14;10.87;;;6.67;;
55134;SDS011;41031;44.750;11.308;2023-02-28T08:56:46;12.07;;;7.47;;
55134;SDS011;41031;44.750;11.308;2023-02-28T08:59:17;10.03;;;7.23;;
55134;SDS011;41031;44.750;11.308;2023-02-28T09:01:45;10.07;;;7.37;;
55134;SDS011;41031;44.750;11.308;2023-02-28T09:04:14;11.87;;;7.70;;
55134;SDS011;41031;44.750;11.308;2023-02-28T09:06:46;13.17;;;7.90;;
55134;SDS011;41031;44.750;11.308;2023-02-28T09:09:16;13.10;;;7.00;;
55134;SDS011;41031;44.750;11.308;2023-02-28T09:11:44;13.47;;;7.63;;
55134;SDS011;41031;44.750;11.308;2023-02-28T09:14:12;9.30;;;6.87;;
55134;SDS011;41031;44.750;11.308;2023-02-28T09:16:41;13.37;;;7.27;;
55134;SDS011;41031;44.750;11.308;2023-02-28T09:19:12;9.20;;;6.97;;
55134;SDS011;41031;44.750;11.308;2023-02-28T09:21:42;9.90;;;7.57;;
55134;SDS011;41031;44.750;11.308;2023-02-28T09:24:10;14.03;;;8.10;;
55134;SDS011;41031;44.750;11.308;2023-02-28T09:26:41;12.67;;;8.00;;
55134;SDS011;41031;44.750;11.308;2023-02-28T09:29:30;11.43;;;7.43;;
55134;SDS011;41031;44.750;11.308;2023-02-28T09:32:00;13.23;;;7.20;;
55134;SDS011;41031;44.750;11.308;2023-02-28T09:34:28;12.57;;;8.63;;
55134;SDS011;41031;44.750;11.308;2023-02-28T09:37:01;11.37;;;8.00;;
55134;SDS011;41031;44.750;11.308;2023-02-28T09:39:30;11.60;;;7.37;;
55134;SDS011;41031;44.750;11.308;2023-02-28T09:41:59;9.73;;;7.50;;
55134;SDS011;41031;44.750;11.308;2023-02-28T09:44:31;16.93;;;7.97;;
55134;SDS011;41031;44.750;11.308;2023-02-28T09:47:28;13.57;;;7.90;;
55134;SDS011;41031;44.750;11.308;2023-02-28T09:53:03;12.63;;;7.97;;
55134;SDS011;41031;44.750;11.308;2023-02-28T09:55:51;12.23;;;7.87;;
55134;SDS011;41031;44.750;11.308;2023-02-28T09:58:33;14.17;;;8.00;;
55134;SDS011;41031;44.750;11.308;2023-02-28T10:01:39;13.90;;;7.60;;
55134;SDS011;41031;44.750;11.308;2023-02-28T10:13:00;10.70;;;7.77;;
55134;SDS011;41031;44.750;11.308;2023-02-28T10:15:31;9.07;;;7.10;;
55134;SDS011;41031;44.750;11.308;2023-02-28T10:18:03;11.07;;;7.30;;
55134;SDS011;41031;44.750;11.308;2023-02-28T10:20:37;12.40;;;8.30;;
55134;SDS011;41031;44.750;11.308;2023-02-28T10:23:12;10.83;;;7.67;;
55134;SDS011;41031;44.750;11.308;2023-02-28T10:25:53;11.17;;;7.60;;
55134;SDS011;41031;44.750;11.308;2023-02-28T10:28:35;13.37;;;7.93;;
55134;SDS011;41031;44.750;11.308;2023-02-28T10:31:22;9.90;;;7.60;;
55134;SDS011;41031;44.750;11.308;2023-02-28T10:33:51;13.43;;;8.60;;
55134;SDS011;41031;44.750;11.308;2023-02-28T10:36:20;13.20;;;7.77;;
55134;SDS011;41031;44.750;11.308;2023-02-28T10:38:47;9.03;;;7.40;;
55134;SDS011;41031;44.750;11.308;2023-02-28T10:41:26;9.37;;;7.50;;
55134;SDS011;41031;44.750;11.308;2023-02-28T10:44:20;10.77;;;6.93;;
55134;SDS011;41031;44.750;11.308;2023-02-28T10:46:48;11.50;;;7.53;;
55134;SDS011;41031;44.750;11.308;2023-02-28T10:49:21;12.07;;;7.83;;
55134;SDS011;41031;44.750;11.308;2023-02-28T10:51:57;10.23;;;7.50;;
55134;SDS011;41031;44.750;11.308;2023-02-28T10:54:30;11.47;;;7.03;;
55134;SDS011;41031;44.750;11.308;2023-02-28T10:57:06;9.80;;;6.93;;
55134;SDS011;41031;44.750;11.308;2023-02-28T10:59:50;11.03;;;7.90;;
55134;SDS011;41031;44.750;11.308;2023-02-28T11:02:29;10.00;;;6.77;;
55134;SDS011;41031;44.750;11.308;2023-02-28T11:04:59;9.33;;;7.07;;
55134;SDS011;41031;44.750;11.308;2023-02-28T11:07:28;9.60;;;7.60;;
55134;SDS011;41031;44.750;11.308;2023-02-28T11:10:18;9.70;;;7.40;;
55134;SDS011;41031;44.750;11.308;2023-02-28T11:12:48;9.60;;;7.20;;
55134;SDS011;41031;44.750;11.308;2023-02-28T11:20:40;12.20;;;7.80;;
55134;SDS011;41031;44.750;11.308;2023-02-28T11:23:10;9.27;;;7.13;;
55134;SDS011;41031;44.750;11.308;2023-02-28T11:25:45;9.70;;;8.17;;
55134;SDS011;41031;44.750;11.308;2023-02-28T11:31:05;9.13;;;7.30;;
55134;SDS011;41031;44.750;11.308;2023-02-28T11:33:41;8.80;;;6.80;;
55134;SDS011;41031;44.750;11.308;2023-02-28T11:36:17;10.07;;;7.00;;
55134;SDS011;41031;44.750;11.308;2023-02-28T11:38:47;9.50;;;7.43;;
55134;SDS011;41031;44.750;11.308;2023-02-28T11:41:21;8.67;;;6.43;;
55134;SDS011;41031;44.750;11.308;2023-02-28T11:58:30;12.80;;;7.37;;
55134;SDS011;41031;44.750;11.308;2023-02-28T12:03:57;9.03;;;6.77;;
55134;SDS011;41031;44.750;11.308;2023-02-28T12:09:30;11.20;;;7.53;;
55134;SDS011;41031;44.750;11.308;2023-02-28T12:25:24;11.57;;;6.97;;
55134;SDS011;41031;44.750;11.308;2023-02-28T12:28:02;11.60;;;7.27;;
55134;SDS011;41031;44.750;11.308;2023-02-28T12:30:31;9.03;;;6.63;;
55134;SDS011;41031;44.750;11.308;2023-02-28T12:33:09;11.83;;;6.80;;
55134;SDS011;41031;44.750;11.308;2023-02-28T12:35:44;8.93;;;7.20;;
55134;SDS011;41031;44.750;11.308;2023-02-28T12:39:00;12.20;;;7.60;;
55134;SDS011;41031;44.750;11.308;2023-02-28T12:41:24;11.83;;;7.97;;
55134;SDS011;41031;44.750;11.308;2023-02-28T12:43:57;12.27;;;7.80;;
55134;SDS011;41031;44.750;11.308;2023-02-28T12:46:32;10.43;;;7.00;;
55134;SDS011;41031;44.750;11.308;2023-02-28T12:49:45;9.47;;;6.93;;
55134;SDS011;41031;44.750;11.308;2023-02-28T12:52:09;10.70;;;7.57;;
55134;SDS011;41031;44.750;11.308;2023-02-28T12:54:44;16.10;;;7.87;;
55134;SDS011;41031;44.750;11.308;2023-02-28T12:57:44;13.73;;;7.77;;
55134;SDS011;41031;44.750;11.308;2023-02-28T13:00:22;11.90;;;7.63;;
55134;SDS011;41031;44.750;11.308;2023-02-28T13:11:05;9.97;;;6.90;;
55134;SDS011;41031;44.750;11.308;2023-02-28T13:13:45;13.97;;;7.80;;
55134;SDS011;41031;44.750;11.308;2023-02-28T13:16:12;12.50;;;7.33;;
55134;SDS011;41031;44.750;11.308;2023-02-28T13:18:39;8.97;;;6.40;;
55134;SDS011;41031;44.750;11.308;2023-02-28T13:34:36;10.07;;;6.90;;
55134;SDS011;41031;44.750;11.308;2023-02-28T13:39:46;8.83;;;6.63;;
55134;SDS011;41031;44.750;11.308;2023-02-28T13:47:30;8.27;;;6.40;;
55134;SDS011;41031;44.750;11.308;2023-02-28T13:55:57;8.10;;;5.80;;
55134;SDS011;41031;44.750;11.308;2023-02-28T13:58:54;11.70;;;5.50;;
55134;SDS011;41031;44.750;11.308;2023-02-28T14:01:39;11.90;;;6.23;;
55134;SDS011;41031;44.750;11.308;2023-02-28T14:07:08;12.40;;;6.30;;
55134;SDS011;41031;44.750;11.308;2023-02-28T14:09:45;7.40;;;5.17;;
55134;SDS011;41031;44.750;11.308;2023-02-28T14:18:02;9.20;;;6.13;;
55134;SDS011;41031;44.750;11.308;2023-02-28T14:20:33;7.90;;;5.47;;
55134;SDS011;41031;44.750;11.308;2023-02-28T14:26:19;9.10;;;5.80;;
55134;SDS011;41031;44.750;11.308;2023-02-28T14:31:29;10.73;;;5.97;;
55134;SDS011;41031;44.750;11.308;2023-02-28T14:37:02;10.30;;;5.63;;
55134;SDS011;41031;44.750;11.308;2023-02-28T14:39:30;8.90;;;5.23;;
55134;SDS011;41031;44.750;11.308;2023-02-28T14:41:59;7.77;;;4.70;;
55134;SDS011;41031;44.750;11.308;2023-02-28T14:44:31;5.93;;;4.63;;
55134;SDS011;41031;44.750;11.308;2023-02-28T14:47:02;7.10;;;5.07;;
55134;SDS011;41031;44.750;11.308;2023-02-28T14:49:35;10.30;;;5.20;;
55134;SDS011;41031;44.750;11.308;2023-02-28T14:54:54;10.77;;;5.77;;
55134;SDS011;41031;44.750;11.308;2023-02-28T14:57:28;8.50;;;5.00;;
55134;SDS011;41031;44.750;11.308;2023-02-28T15:00:04;7.40;;;4.73;;
55134;SDS011;41031;44.750;11.308;2023-02-28T15:02:42;6.00;;;4.53;;
55134;SDS011;41031;44.750;11.308;2023-02-28T15:07:46;6.43;;;5.10;;
55134;SDS011;41031;44.750;11.308;2023-02-28T15:12:58;12.37;;;6.03;;
55134;SDS011;41031;44.750;11.308;2023-02-28T15:18:30;5.57;;;4.50;;
55134;SDS011;41031;44.750;11.308;2023-02-28T15:21:02;9.67;;;5.40;;
55134;SDS011;41031;44.750;11.308;2023-02-28T15:23:37;11.67;;;5.10;;
55134;SDS011;41031;44.750;11.308;2023-02-28T15:26:07;11.03;;;5.17;;
55134;SDS011;41031;44.750;11.308;2023-02-28T15:28:40;6.67;;;5.23;;
55134;SDS011;41031;44.750;11.308;2023-02-28T15:31:18;10.37;;;4.73;;
55134;SDS011;41031;44.750;11.308;2023-02-28T15:33:53;10.43;;;4.50;;
55134;SDS011;41031;44.750;11.308;2023-02-28T15:36:24;12.87;;;4.67;;
55134;SDS011;41031;44.750;11.308;2023-02-28T15:38:54;6.77;;;4.87;;
55134;SDS011;41031;44.750;11.308;2023-02-28T15:41:36;7.10;;;4.63;;
55134;SDS011;41031;44.750;11.308;2023-02-28T15:47:04;7.90;;;5.23;;
55134;SDS011;41031;44.750;11.308;2023-02-28T15:49:53;6.30;;;4.50;;
55134;SDS011;41031;44.750;11.308;2023-02-28T15:52:29;7.47;;;5.00;;
55134;SDS011;41031;44.750;11.308;2023-02-28T15:55:08;8.47;;;5.13;;
55134;SDS011;41031;44.750;11.308;2023-02-28T15:57:37;7.33;;;4.53;;
55134;SDS011;41031;44.750;11.308;2023-02-28T16:00:08;9.03;;;4.43;;
55134;SDS011;41031;44.750;11.308;2023-02-28T16:02:39;8.07;;;4.17;;
55134;SDS011;41031;44.750;11.308;2023-02-28T16:07:38;7.10;;;4.80;;
55134;SDS011;41031;44.750;11.308;2023-02-28T16:10:08;6.87;;;4.20;;
55134;SDS011;41031;44.750;11.308;2023-02-28T16:12:38;10.43;;;4.73;;
55134;SDS011;41031;44.750;11.308;2023-02-28T16:17:45;6.40;;;4.33;;
55134;SDS011;41031;44.750;11.308;2023-02-28T16:20:13;7.00;;;4.47;;
55134;SDS011;41031;44.750;11.308;2023-02-28T16:22:52;7.40;;;4.70;;
55134;SDS011;41031;44.750;11.308;2023-02-28T16:25:20;8.33;;;5.17;;
55134;SDS011;41031;44.750;11.308;2023-02-28T16:27:56;5.90;;;4.10;;
55134;SDS011;41031;44.750;11.308;2023-02-28T16:30:27;11.03;;;4.53;;
55134;SDS011;41031;44.750;11.308;2023-02-28T16:32:58;8.50;;;5.07;;
55134;SDS011;41031;44.750;11.308;2023-02-28T16:35:25;10.57;;;5.00;;
55134;SDS011;41031;44.750;11.308;2023-02-28T16:37:52;11.97;;;5.30;;
55134;SDS011;41031;44.750;11.308;2023-02-28T16:40:24;10.17;;;4.47;;
55134;SDS011;41031;44.750;11.308;2023-02-28T16:42:53;10.13;;;5.50;;
55134;SDS011;41031;44.750;11.308;2023-02-28T16:45:25;8.57;;;5.20;;
55134;SDS011;41031;44.750;11.308;2023-02-28T16:47:53;7.70;;;4.90;;
55134;SDS011;41031;44.750;11.308;2023-02-28T16:50:30;10.07;;;4.80;;
55134;SDS011;41031;44.750;11.308;2023-02-28T16:53:00;8.73;;;4.87;;
55134;SDS011;41031;44.750;11.308;2023-02-28T16:55:28;7.77;;;4.50;;
55134;SDS011;41031;44.750;11.308;2023-02-28T16:57:56;5.93;;;4.50;;
55134;SDS011;41031;44.750;11.308;2023-02-28T17:00:25;7.50;;;4.87;;
55134;SDS011;41031;44.750;11.308;2023-02-28T17:02:54;10.17;;;5.20;;
55134;SDS011;41031;44.750;11.308;2023-02-28T17:05:22;8.30;;;4.80;;
55134;SDS011;41031;44.750;11.308;2023-02-28T17:07:49;9.50;;;5.20;;
55134;SDS011;41031;44.750;11.308;2023-02-28T17:10:18;8.77;;;5.07;;
55134;SDS011;41031;44.750;11.308;2023-02-28T17:12:46;8.23;;;5.23;;
55134;SDS011;41031;44.750;11.308;2023-02-28T17:15:14;7.73;;;4.90;;
55134;SDS011;41031;44.750;11.308;2023-02-28T17:17:42;9.43;;;5.53;;
55134;SDS011;41031;44.750;11.308;2023-02-28T17:20:12;11.90;;;4.80;;
55134;SDS011;41031;44.750;11.308;2023-02-28T17:22:52;8.37;;;5.93;;
55134;SDS011;41031;44.750;11.308;2023-02-28T17:25:20;11.57;;;5.73;;
55134;SDS011;41031;44.750;11.308;2023-02-28T17:27:48;16.40;;;5.97;;
55134;SDS011;41031;44.750;11.308;2023-02-28T17:30:16;7.80;;;6.53;;
55134;SDS011;41031;44.750;11.308;2023-02-28T17:32:56;7.23;;;5.10;;
55134;SDS011;41031;44.750;11.308;2023-02-28T17:35:23;9.17;;;6.20;;
55134;SDS011;41031;44.750;11.308;2023-02-28T17:37:53;10.20;;;5.47;;